Terminal Aerodrome Forecast
Issued by NWS

Home | Current Version | Previous Version | Text Only | Print | Product List | Glossary On
Versions: 1 2 3 4 5 6 7 8 9 10 11 12 13 14 15 16 17 18 19 20 21 22 23 24 25 26 27 28 29 30 31 32 33 34 35 36 37 38 39 40 41 42 43 44 45 46 47 48 49 50
000
FTUS45 KBOU 242328
TAFAPA
TAF
KAPA 242328Z 2500/2524 27012G21KT P6SM FEW110 BKN220
     FM250100 25008KT P6SM SCT110 BKN200
     FM250300 22008KT P6SM SCT060 BKN100 OVC200
     FM250900 24010KT P6SM SCT030 BKN060
     FM251100 01014KT P6SM VCSH SCT050 BKN070
     FM251500 01018G27KT P6SM SCT020 OVC050
      TEMPO 2515/2518 3SM -SHRASN SCT015 OVC030
     FM252100 01014G22KT P6SM SCT030 BKN070=

USA.gov is the U.S. government's official web portal to all federal, state and local government web resources and services.